DEL weather

Indira Gandhi International Airport
New Delhi, Delhi, India

Public forecast

Using degrees Celsius for public forecast. Weather courtesy of forecast.io.

Current aviation weather report (METAR) for Indira Gandhi International Airport

Retrieved 2019/10/16 20:30 UTC (1 minute ago):

VIDP 162030Z 00000KT 2000 HZ NSC 25/19 Q1014 NOSIG

Aviation forecast (TAF) for Indira Gandhi International Airport

Retrieved 2019/10/16 18:00 UTC (3 hours ago):

TAF VIDP 161700Z 1618/1724 10003KT 2500 HZ FEW100 BECMG 1700/1702 00000KT 1500 BR FEW040 BECMG 1705/1707 17005KT 3000 HZ SCT100 TEMPO 1708/1712 FEW040CB BECMG 1720/1722 10006KT 2000 BR -RA